< < Back
Terminal Aerodrome Forecast


Current Version              Previous Versions:   1  2  3  4  5  6  7  8  9  

Terminal Aerodrome Forecast

817
FTUS42 KTAE 272300
TAFTLH
TAF
KTLH 272320Z 2800/2824 00000KT P6SM SKC
     FM281500 16007KT P6SM SCT060=

Latest METAR

132
SAUS80 KWBC 280100 RRB
MTRTLH
METAR KTLH 280053Z 00000KT 10SM FEW075 28/18 A2998 RMK AO2 SLP151
T02780178


USA.gov is the U.S. government's official web portal to all federal, state and local government web resources and services.